createdAt,value
2022-10-12T00:02:22.521Z,22.58
2022-10-12T00:04:49.292Z,26.98
2022-10-12T00:07:16.064Z,27.45
2022-10-12T00:09:42.899Z,28.45
2022-10-12T00:12:09.675Z,26.42
2022-10-12T00:14:37.341Z,28.75
2022-10-12T00:17:04.539Z,28.17
2022-10-12T00:19:33.982Z,27.25
2022-10-12T00:22:00.837Z,27.13
2022-10-12T00:24:27.659Z,23.25
2022-10-12T00:26:54.442Z,27.42
2022-10-12T00:29:21.268Z,25.52
2022-10-12T00:31:48.038Z,25.25
2022-10-12T00:34:15.066Z,25.30
2022-10-12T00:36:41.865Z,27.10
2022-10-12T00:39:10.033Z,29.17
2022-10-12T00:41:41.213Z,29.55
2022-10-12T00:44:38.638Z,34.08
2022-10-12T00:47:14.014Z,28.90
2022-10-12T00:49:41.364Z,30.27
2022-10-12T00:52:13.002Z,27.02
2022-10-12T00:54:47.007Z,27.50
2022-10-12T00:57:16.129Z,25.42
2022-10-12T00:59:49.854Z,30.63
2022-10-12T01:02:20.078Z,30.48
2022-10-12T01:04:47.245Z,25.40
2022-10-12T01:07:14.740Z,26.75
2022-10-12T01:09:42.070Z,30.65
2022-10-12T01:12:10.060Z,28.33
2022-10-12T01:14:36.887Z,26.83
2022-10-12T01:17:19.418Z,29.25
2022-10-12T01:20:04.884Z,26.95
2022-10-12T01:22:39.037Z,28.55
2022-10-12T01:25:22.093Z,24.00
2022-10-12T01:28:16.946Z,26.70
2022-10-12T01:30:50.792Z,25.80
2022-10-12T01:33:20.325Z,29.85
2022-10-12T01:35:58.451Z,29.42
2022-10-12T01:38:43.839Z,31.70
2022-10-12T01:41:17.066Z,27.27
2022-10-12T01:43:45.670Z,28.80
2022-10-12T01:46:15.531Z,38.80
2022-10-12T01:48:44.432Z,35.10
2022-10-12T01:51:15.440Z,38.58
2022-10-12T01:53:45.902Z,32.92
2022-10-12T01:56:39.002Z,33.08
2022-10-12T01:59:17.708Z,36.75
2022-10-12T02:01:55.639Z,44.08
2022-10-12T02:04:54.008Z,34.97
2022-10-12T02:07:41.997Z,33.63
2022-10-12T02:10:16.584Z,35.10
2022-10-12T02:12:45.765Z,30.17
2022-10-12T02:15:14.087Z,33.83
2022-10-12T02:17:44.070Z,32.53
2022-10-12T02:20:15.540Z,30.30
2022-10-12T02:22:44.215Z,29.73
2022-10-12T02:25:15.206Z,30.55
2022-10-12T02:27:47.958Z,32.33
2022-10-12T02:30:14.910Z,30.05
2022-10-12T02:32:46.164Z,31.23
2022-10-12T02:35:37.299Z,31.77
2022-10-12T02:38:16.168Z,26.70
2022-10-12T02:40:55.573Z,27.05
2022-10-12T02:43:29.109Z,30.38
2022-10-12T02:45:58.619Z,29.08
2022-10-12T02:48:28.682Z,30.13
2022-10-12T02:50:57.803Z,31.65
2022-10-12T02:53:26.393Z,31.38
2022-10-12T02:55:56.445Z,31.48
2022-10-12T02:58:23.312Z,31.80
2022-10-12T03:00:50.083Z,32.10
2022-10-12T03:05:45.928Z,37.42
2022-10-12T03:08:12.781Z,43.22
2022-10-12T03:10:39.540Z,37.50
2022-10-12T03:13:06.299Z,40.38
2022-10-12T03:15:33.103Z,39.67
2022-10-12T03:17:59.941Z,54.88
2022-10-12T03:20:26.702Z,55.15
2022-10-12T03:22:53.478Z,44.97
2022-10-12T03:25:20.266Z,59.65
2022-10-12T03:27:47.069Z,90.18
2022-10-12T03:30:14.751Z,39.13
2022-10-12T03:32:41.480Z,55.58
2022-10-12T03:35:08.670Z,47.92
2022-10-12T03:37:35.658Z,45.58
2022-10-12T03:40:02.918Z,48.03
2022-10-12T03:42:29.669Z,42.30
2022-10-12T03:44:56.490Z,65.40
2022-10-12T03:47:23.305Z,46.50
2022-10-12T03:49:50.083Z,53.20
2022-10-12T03:52:16.796Z,70.25
2022-10-12T03:54:43.574Z,56.38
2022-10-12T03:57:10.364Z,56.40
2022-10-12T03:59:38.956Z,56.35
2022-10-12T04:02:05.727Z,57.10
2022-10-12T04:04:32.487Z,78.70
2022-10-12T04:06:59.249Z,67.32
2022-10-12T04:09:26.145Z,55.45
2022-10-12T04:11:52.894Z,55.55
2022-10-12T04:14:19.677Z,51.05
2022-10-12T04:16:46.464Z,67.43
2022-10-12T04:19:13.648Z,55.40
2022-10-12T04:21:40.715Z,48.58
2022-10-12T04:24:07.799Z,48.38
2022-10-12T04:26:34.621Z,51.55
2022-10-12T04:29:01.390Z,48.78
2022-10-12T04:31:28.238Z,47.35
2022-10-12T04:33:58.105Z,50.63
2022-10-12T04:36:25.988Z,47.75
2022-10-12T04:38:58.383Z,50.63
2022-10-12T04:41:27.054Z,43.63
2022-10-12T04:43:54.138Z,53.65
2022-10-12T04:46:22.064Z,47.78
2022-10-12T04:48:48.870Z,49.83
2022-10-12T04:51:15.669Z,46.45
2022-10-12T04:53:42.451Z,45.65
2022-10-12T04:56:09.282Z,48.33
2022-10-12T04:58:36.113Z,42.50
2022-10-12T05:01:03.073Z,45.67
2022-10-12T05:03:30.066Z,42.38
2022-10-12T05:05:56.771Z,41.92
2022-10-12T05:08:23.520Z,37.25
2022-10-12T05:10:50.311Z,40.53
2022-10-12T05:13:17.150Z,37.60
2022-10-12T05:15:44.378Z,45.60
2022-10-12T05:18:11.221Z,39.17
2022-10-12T05:20:38.529Z,49.13
2022-10-12T05:23:05.270Z,44.80
2022-10-12T05:25:32.537Z,43.13
2022-10-12T05:27:59.582Z,46.40
2022-10-12T05:30:26.471Z,43.45
2022-10-12T05:32:53.341Z,44.33
2022-10-12T05:35:20.251Z,48.80
2022-10-12T05:37:47.090Z,44.28
2022-10-12T05:40:14.332Z,56.90
2022-10-12T05:42:41.439Z,54.03
2022-10-12T05:45:09.064Z,51.67
2022-10-12T05:47:36.091Z,45.95
2022-10-12T05:50:05.715Z,60.15
2022-10-12T05:52:32.436Z,70.55
2022-10-12T05:54:59.181Z,64.05
2022-10-12T05:57:25.949Z,67.70
2022-10-12T05:59:52.834Z,73.50
2022-10-12T06:02:19.682Z,63.50
2022-10-12T06:04:46.486Z,74.78
2022-10-12T06:07:13.258Z,62.15
2022-10-12T06:09:40.106Z,63.97
2022-10-12T06:12:07.893Z,62.70
2022-10-12T06:14:41.823Z,73.05
2022-10-12T06:17:09.709Z,68.18
2022-10-12T06:19:36.897Z,65.03
2022-10-12T06:22:04.816Z,68.05
2022-10-12T06:24:31.872Z,71.55
2022-10-12T06:26:58.897Z,77.32
2022-10-12T06:29:25.674Z,62.20
2022-10-12T06:31:52.848Z,64.82
2022-10-12T06:34:19.878Z,58.45
2022-10-12T06:36:46.647Z,68.93
2022-10-12T06:39:13.586Z,72.53
2022-10-12T06:41:40.597Z,75.05
2022-10-12T06:44:08.378Z,72.13
2022-10-12T06:46:35.280Z,76.80
2022-10-12T06:49:02.114Z,79.18
2022-10-12T06:51:28.879Z,62.45
2022-10-12T06:53:56.472Z,64.28
2022-10-12T06:56:25.576Z,76.35
2022-10-12T06:58:56.352Z,72.47
2022-10-12T07:01:23.259Z,68.93
2022-10-12T07:03:50.089Z,66.50
2022-10-12T07:06:17.210Z,65.65
2022-10-12T07:08:44.247Z,65.03
2022-10-12T07:11:12.822Z,61.50
2022-10-12T07:13:39.791Z,62.28
2022-10-12T07:16:06.776Z,62.50
2022-10-12T07:18:33.764Z,54.28
2022-10-12T07:21:02.436Z,53.88
2022-10-12T07:23:33.394Z,56.65
2022-10-12T07:26:00.499Z,52.85
2022-10-12T07:28:27.508Z,52.75
2022-10-12T07:30:54.385Z,53.22
2022-10-12T07:33:21.145Z,58.22
2022-10-12T07:36:14.451Z,48.58
2022-10-12T07:38:45.184Z,52.50
2022-10-12T07:41:12.843Z,53.00
2022-10-12T07:43:39.867Z,55.67
2022-10-12T07:46:07.229Z,50.88
2022-10-12T07:48:34.704Z,55.58
2022-10-12T07:51:10.304Z,49.05
2022-10-12T07:53:38.741Z,48.05
2022-10-12T07:56:07.767Z,51.75
2022-10-12T07:58:34.799Z,49.22
2022-10-12T08:01:07.092Z,45.65
2022-10-12T08:03:33.970Z,49.95
2022-10-12T08:06:00.790Z,47.35
2022-10-12T08:08:27.560Z,42.50
2022-10-12T08:10:54.336Z,44.80
2022-10-12T08:13:21.089Z,45.40
2022-10-12T08:15:51.142Z,43.38
2022-10-12T08:18:17.931Z,44.95
2022-10-12T08:20:44.771Z,43.42
2022-10-12T08:23:11.550Z,43.80
2022-10-12T08:25:38.389Z,42.45
2022-10-12T08:28:06.067Z,43.60
2022-10-12T08:30:35.706Z,49.58
2022-10-12T08:33:04.812Z,42.15
2022-10-12T08:35:33.655Z,45.42
2022-10-12T08:38:00.574Z,43.55
2022-10-12T08:40:32.145Z,46.90
2022-10-12T08:43:29.261Z,46.22
2022-10-12T08:46:01.847Z,50.42
2022-10-12T08:48:51.688Z,44.75
2022-10-12T08:51:22.801Z,46.88
2022-10-12T08:54:05.400Z,46.92
2022-10-12T08:56:34.887Z,37.10
2022-10-12T08:59:03.586Z,40.22
2022-10-12T09:01:38.572Z,39.08
2022-10-12T09:07:08.630Z,32.40
2022-10-12T09:09:59.605Z,32.95
2022-10-12T09:12:58.636Z,38.33
2022-10-12T09:15:33.650Z,37.92
2022-10-12T09:18:02.998Z,38.28
2022-10-12T09:20:35.347Z,34.03
2022-10-12T09:23:12.355Z,34.72
2022-10-12T09:25:40.293Z,35.10
2022-10-12T09:28:29.352Z,34.00
2022-10-12T09:31:09.660Z,31.65
2022-10-12T09:33:51.860Z,33.80
2022-10-12T09:36:22.643Z,31.90
2022-10-12T09:38:50.426Z,32.33
2022-10-12T09:41:22.853Z,32.58
2022-10-12T09:43:57.243Z,31.33
2022-10-12T09:46:49.833Z,33.78
2022-10-12T09:49:16.767Z,38.67
2022-10-12T09:51:44.649Z,33.13
2022-10-12T09:54:18.731Z,33.67
2022-10-12T09:56:51.289Z,31.98
2022-10-12T09:59:43.165Z,34.83
2022-10-12T10:02:22.598Z,32.60
2022-10-12T10:04:51.249Z,29.45
2022-10-12T10:07:24.155Z,31.92
2022-10-12T10:10:14.036Z,34.28
2022-10-12T10:12:54.523Z,32.55
2022-10-12T10:15:41.026Z,33.67
2022-10-12T10:18:23.266Z,32.83
2022-10-12T10:20:57.765Z,28.65
2022-10-12T10:23:54.291Z,30.20
2022-10-12T10:26:22.562Z,27.73
2022-10-12T10:28:53.593Z,25.83
2022-10-12T10:31:27.931Z,30.42
2022-10-12T10:34:19.011Z,26.13
2022-10-12T10:36:52.826Z,29.58
2022-10-12T10:39:30.026Z,29.13
2022-10-12T10:42:09.141Z,28.45
2022-10-12T10:44:37.024Z,25.63
2022-10-12T10:47:13.012Z,27.35
2022-10-12T10:50:17.771Z,29.92
2022-10-12T10:52:55.186Z,25.40
2022-10-12T10:55:28.695Z,28.98
2022-10-12T10:58:06.726Z,27.65
2022-10-12T11:00:39.597Z,23.33
2022-10-12T11:03:33.979Z,23.70
2022-10-12T11:06:10.244Z,25.55
2022-10-12T11:08:38.632Z,26.45
2022-10-12T11:11:20.441Z,26.17
2022-10-12T11:14:04.153Z,28.15
2022-10-12T11:16:46.008Z,26.02
2022-10-12T11:19:36.765Z,21.80
2022-10-12T11:22:22.167Z,25.95
2022-10-12T11:25:34.189Z,26.48
2022-10-12T11:28:01.055Z,24.05
2022-10-12T11:30:36.848Z,23.75
2022-10-12T11:33:07.267Z,27.52
2022-10-12T11:35:40.512Z,20.10
2022-10-12T11:38:30.142Z,23.98
2022-10-12T11:42:09.339Z,26.02
2022-10-12T11:44:46.285Z,21.50
2022-10-12T11:47:36.179Z,18.27
2022-10-12T11:50:05.238Z,17.80
2022-10-12T11:52:39.825Z,17.20
2022-10-12T11:55:06.743Z,16.63
2022-10-12T11:57:36.605Z,18.85
2022-10-12T12:00:19.485Z,18.67
2022-10-12T12:02:53.452Z,19.70
2022-10-12T12:05:20.535Z,19.95
2022-10-12T12:07:56.650Z,23.08
2022-10-12T12:10:31.694Z,17.05
2022-10-12T12:13:23.189Z,19.13
2022-10-12T12:15:49.967Z,19.15
2022-10-12T12:18:20.146Z,19.95
2022-10-12T12:20:46.868Z,22.45
2022-10-12T12:23:19.567Z,19.58
2022-10-12T12:25:46.569Z,19.38
2022-10-12T12:28:24.677Z,20.98
2022-10-12T12:31:12.148Z,20.63
2022-10-12T12:33:42.611Z,18.73
2022-10-12T12:36:13.450Z,22.40
2022-10-12T12:38:49.735Z,13.98
2022-10-12T12:41:18.439Z,19.25
2022-10-12T12:43:45.325Z,19.13
2022-10-12T12:46:14.274Z,24.15
2022-10-12T12:48:41.042Z,22.25
2022-10-12T12:51:08.489Z,24.92
2022-10-12T12:53:43.872Z,23.33
2022-10-12T12:56:27.680Z,21.35
2022-10-12T12:58:58.381Z,19.00
2022-10-12T13:01:25.158Z,19.88
2022-10-12T13:03:57.825Z,17.33
2022-10-12T13:06:42.926Z,19.35
2022-10-12T13:09:16.039Z,17.00
2022-10-12T13:12:04.699Z,23.98
2022-10-12T13:15:06.188Z,24.50
2022-10-12T13:18:28.429Z,19.25
2022-10-12T13:21:00.713Z,23.00
2022-10-12T13:23:28.329Z,22.20
2022-10-12T13:26:09.470Z,20.90
2022-10-12T13:28:42.532Z,19.40
2022-10-12T13:31:26.120Z,24.33
2022-10-12T13:34:16.008Z,20.25
2022-10-12T13:37:00.190Z,23.35
2022-10-12T13:39:38.672Z,22.30
2022-10-12T13:42:06.108Z,23.13
2022-10-12T13:44:35.672Z,21.13
2022-10-12T13:47:20.216Z,21.75
2022-10-12T13:49:47.108Z,21.23
2022-10-12T14:13:56.036Z,23.58
2022-10-12T14:29:48.927Z,27.48
2022-10-12T14:32:19.108Z,23.92
2022-10-12T15:44:50.137Z,17.85
2022-10-12T15:54:32.038Z,16.02
2022-10-12T15:56:59.370Z,17.42
2022-10-12T15:59:26.470Z,17.13
2022-10-12T16:01:53.250Z,20.08
2022-10-12T16:04:20.475Z,31.33
2022-10-12T16:06:47.253Z,26.98
2022-10-12T16:09:14.054Z,28.65
2022-10-12T16:11:40.879Z,26.30
2022-10-12T16:14:09.593Z,16.40
2022-10-12T16:16:36.433Z,17.00
2022-10-12T16:19:03.271Z,18.63
2022-10-12T16:21:30.082Z,17.98
2022-10-12T16:23:56.894Z,16.52
2022-10-12T16:26:23.713Z,18.40
2022-10-12T16:28:50.565Z,17.15
2022-10-12T16:31:18.180Z,23.42
2022-10-12T16:33:45.269Z,17.65
2022-10-12T16:36:15.048Z,20.85
2022-10-12T16:38:42.779Z,16.63
2022-10-12T16:41:11.383Z,18.35
2022-10-12T16:43:38.532Z,19.52
2022-10-12T16:46:05.926Z,16.67
2022-10-12T16:48:33.015Z,18.63
2022-10-12T16:51:00.030Z,20.17
2022-10-12T16:53:27.436Z,21.90
2022-10-12T16:55:54.295Z,22.25
2022-10-12T16:58:21.142Z,21.25
2022-10-12T17:00:48.105Z,24.25
2022-10-12T17:03:15.118Z,19.20
2022-10-12T17:05:43.009Z,18.27
2022-10-12T17:08:15.098Z,21.15
2022-10-12T17:10:44.206Z,21.67
2022-10-12T17:13:13.279Z,23.17
2022-10-12T17:15:41.544Z,20.73
2022-10-12T17:18:08.727Z,20.40
2022-10-12T17:20:36.491Z,19.38
2022-10-12T17:23:03.303Z,19.98
2022-10-12T17:25:30.130Z,19.75
2022-10-12T17:27:56.971Z,23.77
2022-10-12T17:30:23.790Z,18.40
2022-10-12T17:32:50.648Z,20.42
2022-10-12T17:35:17.888Z,24.20
2022-10-12T17:37:44.766Z,20.30
2022-10-12T17:40:11.968Z,21.65
2022-10-12T17:42:38.818Z,24.42
2022-10-12T17:45:06.244Z,21.75
2022-10-12T17:47:33.151Z,20.10
2022-10-12T17:50:00.088Z,22.80
2022-10-12T17:52:26.943Z,27.27
2022-10-12T17:54:53.825Z,23.15
2022-10-12T17:57:20.961Z,23.60
2022-10-12T17:59:48.055Z,25.15
2022-10-12T18:02:14.849Z,27.85
2022-10-12T18:04:41.777Z,23.95
2022-10-12T18:07:08.592Z,27.55
2022-10-12T18:09:35.407Z,24.70
2022-10-12T18:12:02.224Z,24.63
2022-10-12T18:14:29.028Z,30.40
2022-10-12T18:43:40.126Z,25.25
2022-10-12T19:06:04.082Z,29.33
2022-10-12T19:08:32.934Z,30.73
2022-10-12T19:13:43.216Z,29.05
2022-10-12T19:16:16.542Z,25.60
2022-10-12T19:18:46.668Z,29.23
2022-10-12T19:21:18.069Z,26.80
2022-10-12T19:23:47.417Z,29.52
2022-10-12T19:26:19.902Z,29.45
2022-10-12T19:28:50.281Z,26.50
2022-10-12T19:31:24.032Z,28.73
2022-10-12T19:33:53.574Z,30.15
2022-10-12T19:39:21.068Z,35.17
2022-10-12T19:41:57.377Z,33.15
2022-10-12T19:44:29.125Z,31.42
2022-10-12T19:58:49.604Z,26.25
2022-10-12T20:05:30.285Z,30.83
2022-10-12T20:07:57.283Z,28.90
2022-10-12T20:10:24.328Z,28.92
2022-10-12T20:12:51.448Z,32.22
2022-10-12T20:15:18.406Z,30.85
2022-10-12T20:17:45.418Z,41.05
2022-10-12T20:20:12.867Z,44.95
2022-10-12T20:22:39.799Z,47.10
2022-10-12T20:25:09.777Z,33.63
2022-10-12T20:27:37.621Z,30.00
2022-10-12T20:30:06.059Z,28.77
2022-10-12T20:32:35.315Z,32.40
2022-10-12T20:35:05.191Z,30.92
2022-10-12T20:37:33.454Z,26.77
2022-10-12T20:40:00.640Z,30.95
2022-10-12T20:42:28.339Z,24.23
2022-10-12T20:44:55.485Z,21.58
2022-10-12T20:47:22.370Z,26.70
2022-10-12T20:49:49.338Z,23.02
2022-10-12T20:52:19.072Z,22.63
2022-10-12T20:54:50.508Z,28.00
2022-10-12T20:57:22.984Z,32.45
2022-10-12T21:00:20.923Z,33.30
2022-10-12T21:02:47.854Z,34.25
2022-10-12T21:07:48.766Z,42.83
2022-10-12T21:10:15.698Z,31.27
2022-10-12T21:12:42.629Z,31.60
2022-10-12T21:15:10.104Z,30.20
2022-10-12T21:17:36.965Z,22.02
2022-10-12T21:20:05.122Z,21.02
2022-10-12T21:22:31.934Z,19.17
2022-10-12T21:24:58.690Z,17.52
2022-10-12T21:27:25.476Z,17.20
2022-10-12T21:29:52.257Z,16.05
2022-10-12T21:32:19.391Z,15.70
2022-10-12T21:34:48.182Z,14.57
2022-10-12T21:37:14.950Z,17.85
2022-10-12T21:39:41.696Z,15.55
2022-10-12T21:42:08.481Z,14.93
2022-10-12T21:44:35.272Z,16.27
2022-10-12T21:47:02.146Z,16.88
2022-10-12T21:49:28.941Z,15.98
2022-10-12T21:51:55.742Z,18.20
2022-10-12T21:54:22.527Z,16.25
2022-10-12T21:56:49.386Z,15.13
2022-10-12T21:59:16.213Z,18.25
2022-10-12T22:01:44.902Z,12.80
2022-10-12T22:04:15.535Z,12.05
2022-10-12T22:06:43.517Z,11.35
2022-10-12T22:09:16.592Z,13.85
2022-10-12T22:11:43.536Z,15.85
2022-10-12T22:14:17.171Z,20.20
2022-10-12T22:16:44.033Z,26.85
2022-10-12T22:19:15.306Z,30.25
2022-10-12T22:21:42.252Z,26.65
2022-10-12T22:24:09.285Z,34.30
2022-10-12T22:26:36.290Z,35.20
2022-10-12T22:29:05.157Z,42.40
2022-10-12T22:31:31.950Z,39.70
2022-10-12T22:33:58.772Z,34.70
2022-10-12T22:36:25.558Z,29.15
2022-10-12T22:38:52.705Z,28.17
2022-10-12T22:41:21.189Z,33.42
2022-10-12T22:43:49.595Z,35.80
2022-10-12T22:46:17.212Z,40.47
2022-10-12T22:48:44.074Z,31.60
2022-10-12T22:51:15.644Z,40.40
2022-10-12T22:56:18.286Z,26.70
2022-10-12T22:58:46.703Z,30.85
2022-10-12T23:01:15.097Z,29.13
2022-10-12T23:03:42.490Z,37.65
2022-10-12T23:06:10.075Z,35.67
2022-10-12T23:08:37.264Z,26.45
2022-10-12T23:11:10.267Z,27.83
2022-10-12T23:13:38.205Z,34.13
2022-10-12T23:16:10.360Z,32.13
2022-10-12T23:21:10.971Z,26.58
2022-10-12T23:23:39.279Z,44.50
2022-10-12T23:26:12.387Z,40.75
2022-10-12T23:28:39.326Z,51.03
2022-10-12T23:31:07.853Z,33.53
2022-10-12T23:33:34.843Z,34.83
2022-10-12T23:36:04.866Z,34.55
2022-10-12T23:38:35.338Z,23.52
2022-10-12T23:41:02.361Z,21.63
2022-10-12T23:43:29.385Z,22.45
2022-10-12T23:45:57.664Z,35.05
2022-10-12T23:48:25.358Z,27.40
2022-10-12T23:50:52.390Z,20.77
2022-10-12T23:53:20.858Z,25.30
2022-10-12T23:55:48.616Z,23.77
2022-10-12T23:58:15.629Z,22.90
